Time;durP1;ratioP1;P1;durP2;ratioP2;P2;SDS_P1;SDS_P2;PMS_P1;PMS_P2;Temp;Humidity;BMP_temperature;BMP_pressure;BME280_temperature;BME280_humidity;BME280_pressure;Samples;Min_cycle;Max_cycle;Signal;HPM_P1;HPM_P2
2023/07/28 00:00:34;;;;;;;4.60;3.20;;;;;14.90;93530.00;;;;7398421;19;20145;-77
2023/07/28 00:03:02;;;;;;;3.67;2.67;;;;;14.90;93538.00;;;;7399745;19;20753;-75
2023/07/28 00:05:37;;;;;;;5.00;3.30;;;;;14.90;93535.00;;;;7399606;19;20136;-74
2023/07/28 00:08:05;;;;;;;4.15;3.20;;;;;15.00;93537.00;;;;7400370;19;20141;-76
2023/07/28 00:10:33;;;;;;;2.95;2.72;;;;;15.10;93544.00;;;;7398037;19;20577;-74
2023/07/28 00:13:08;;;;;;;3.28;2.97;;;;;15.00;93544.00;;;;7397867;19;20137;-75
2023/07/28 00:15:42;;;;;;;3.55;2.90;;;;;14.90;93538.00;;;;7399053;19;20132;-76
2023/07/28 00:18:11;;;;;;;3.65;3.35;;;;;14.90;93539.00;;;;7397670;19;20164;-76
2023/07/28 00:20:52;;;;;;;4.55;3.17;;;;;14.80;93534.00;;;;7399371;19;20445;-74
2023/07/28 00:23:28;;;;;;;4.13;2.85;;;;;14.70;93534.00;;;;7397964;19;20167;-75
2023/07/28 00:26:02;;;;;;;3.05;2.67;;;;;14.60;93530.00;;;;7398538;19;20136;-76
2023/07/28 00:28:30;;;;;;;3.85;2.90;;;;;14.50;93528.00;;;;7398275;19;20616;-75
2023/07/28 00:30:58;;;;;;;3.92;2.92;;;;;14.40;93520.00;;;;7397773;19;20136;-76
2023/07/28 00:33:32;;;;;;;3.90;3.03;;;;;14.40;93524.00;;;;7398403;19;20145;-75
2023/07/28 00:36:06;;;;;;;3.90;2.53;;;;;14.40;93529.00;;;;7397303;19;20157;-75
2023/07/28 00:38:34;;;;;;;4.43;3.10;;;;;14.20;93531.00;;;;7397671;19;20605;-76
2023/07/28 00:41:08;;;;;;;8.00;3.17;;;;;14.10;93527.00;;;;7397038;19;20632;-76
2023/07/28 00:43:37;;;;;;;8.10;3.03;;;;;14.10;93518.00;;;;7397066;19;20129;-76
2023/07/28 00:46:11;;;;;;;4.85;2.95;;;;;14.00;93521.00;;;;7396305;19;20680;-74
2023/07/28 00:48:47;;;;;;;3.65;3.10;;;;;14.00;93523.00;;;;7397879;19;20140;-75
2023/07/28 00:51:21;;;;;;;7.07;3.42;;;;;13.90;93523.00;;;;7396695;19;20148;-75
2023/07/28 00:53:56;;;;;;;4.90;3.15;;;;;13.80;93527.00;;;;7397540;19;20144;-76
2023/07/28 00:56:32;;;;;;;7.40;3.20;;;;;13.80;93524.00;;;;7395585;19;20148;-74
2023/07/28 00:59:07;;;;;;;3.42;2.92;;;;;14.00;93529.00;;;;7397465;19;20137;-78
2023/07/28 01:01:41;;;;;;;4.10;3.28;;;;;14.10;93525.00;;;;7391531;19;20542;-75
2023/07/28 01:04:16;;;;;;;6.13;3.17;;;;;14.10;93528.00;;;;7392650;19;20187;-77
2023/07/28 01:07:20;;;;;;;3.42;3.10;;;;;14.10;93528.00;;;;7395834;19;20909;-77
2023/07/28 01:10:10;;;;;;;5.18;3.72;;;;;14.10;93521.00;;;;7395017;19;20137;-78
2023/07/28 01:12:44;;;;;;;6.07;3.28;;;;;14.20;93526.00;;;;7395109;19;20152;-77
2023/07/28 01:15:14;;;;;;;4.40;3.35;;;;;14.20;93520.00;;;;7396286;19;20133;-77
2023/07/28 01:17:49;;;;;;;4.00;3.13;;;;;14.20;93522.00;;;;7396386;19;20161;-76
2023/07/28 01:20:17;;;;;;;5.63;2.95;;;;;14.10;93518.00;;;;7394578;19;20137;-76
2023/07/28 01:23:04;;;;;;;3.92;3.20;;;;;13.90;93523.00;;;;7394782;19;20164;-79
2023/07/28 01:25:54;;;;;;;6.32;3.10;;;;;13.70;93521.00;;;;7395506;19;20141;-77
2023/07/28 01:28:29;;;;;;;6.50;2.70;;;;;13.60;93522.00;;;;7397916;19;20486;-76
2023/07/28 01:31:07;;;;;;;4.00;2.70;;;;;13.50;93519.00;;;;7396745;19;20143;-79
2023/07/28 01:33:42;;;;;;;3.70;3.00;;;;;13.50;93510.00;;;;7394546;19;20579;-77
2023/07/28 01:36:11;;;;;;;5.55;2.90;;;;;13.70;93516.00;;;;7396892;19;20593;-78
2023/07/28 01:38:45;;;;;;;7.03;3.15;;;;;13.80;93515.00;;;;7395096;19;20150;-78
2023/07/28 01:41:20;;;;;;;3.60;3.20;;;;;13.90;93507.00;;;;7394530;19;20553;-78
2023/07/28 01:44:01;;;;;;;4.65;3.10;;;;;13.90;93509.00;;;;7394652;19;20169;-77
2023/07/28 01:46:28;;;;;;;4.50;3.53;;;;;14.00;93502.00;;;;7395826;19;20521;-76
2023/07/28 01:49:03;;;;;;;4.13;3.45;;;;;14.10;93503.00;;;;7394463;19;20145;-78
2023/07/28 01:51:40;;;;;;;4.43;3.47;;;;;14.10;93502.00;;;;7396032;19;20161;-75
2023/07/28 01:54:15;;;;;;;5.10;3.42;;;;;14.20;93498.00;;;;7394760;19;20161;-80
2023/07/28 01:56:42;;;;;;;3.53;3.20;;;;;14.20;93492.00;;;;7381104;19;20609;-75
2023/07/28 01:59:10;;;;;;;3.90;3.10;;;;;14.20;93490.00;;;;7394498;19;20157;-77
2023/07/28 02:01:46;;;;;;;4.10;3.08;;;;;14.20;93494.00;;;;7393730;19;20602;-78
2023/07/28 02:04:15;;;;;;;4.55;3.30;;;;;14.20;93499.00;;;;7397709;19;20159;-77
2023/07/28 02:06:50;;;;;;;7.32;3.05;;;;;14.00;93487.00;;;;7396120;19;20596;-76
2023/07/28 02:09:24;;;;;;;5.75;3.22;;;;;14.10;93489.00;;;;7395581;19;20155;-78
2023/07/28 02:11:59;;;;;;;4.30;3.53;;;;;14.00;93480.00;;;;7395615;19;20148;-76
2023/07/28 02:14:33;;;;;;;6.88;3.50;;;;;14.00;93491.00;;;;7395719;19;20448;-77
2023/07/28 02:17:07;;;;;;;5.97;3.60;;;;;13.80;93493.00;;;;7394431;19;21008;-76
2023/07/28 02:19:35;;;;;;;3.65;3.13;;;;;13.80;93490.00;;;;7397097;19;20133;-76
2023/07/28 02:22:11;;;;;;;3.97;3.25;;;;;13.90;93492.00;;;;7395165;19;20141;-77
2023/07/28 02:24:52;;;;;;;3.20;2.85;;;;;13.90;93493.00;;;;7394310;19;20139;-77
2023/07/28 02:27:19;;;;;;;4.05;2.85;;;;;13.90;93494.00;;;;7395470;19;20129;-78
2023/07/28 02:29:54;;;;;;;4.35;3.38;;;;;14.00;93491.00;;;;7395524;19;20159;-77
2023/07/28 02:32:24;;;;;;;6.65;3.40;;;;;14.00;93491.00;;;;7394452;19;20616;-78
2023/07/28 02:34:59;;;;;;;3.78;3.22;;;;;14.00;93484.00;;;;7394373;19;20153;-77
2023/07/28 02:37:27;;;;;;;6.60;3.42;;;;;14.00;93490.00;;;;7395144;19;20157;-76
2023/07/28 02:40:01;;;;;;;4.55;3.53;;;;;14.00;93487.00;;;;7393970;19;20140;-76
2023/07/28 02:42:30;;;;;;;3.58;3.28;;;;;14.10;93499.00;;;;7394803;19;20615;-76
2023/07/28 02:45:05;;;;;;;5.68;3.40;;;;;14.10;93490.00;;;;7395390;19;20149;-76
2023/07/28 02:47:33;;;;;;;4.68;4.07;;;;;14.20;93497.00;;;;7401828;19;20624;-77
2023/07/28 02:50:08;;;;;;;6.55;3.30;;;;;14.30;93502.00;;;;7401807;19;20151;-77
2023/07/28 02:52:42;;;;;;;5.03;3.30;;;;;14.50;93519.00;;;;7401792;19;20161;-77
2023/07/28 02:55:16;;;;;;;3.65;3.35;;;;;14.40;93506.00;;;;7399834;19;20155;-76
2023/07/28 02:57:51;;;;;;;4.53;3.47;;;;;14.50;93519.00;;;;7401389;19;20224;-76
2023/07/28 03:00:26;;;;;;;6.38;3.40;;;;;14.60;93523.00;;;;7400342;19;20144;-78
2023/07/28 03:03:02;;;;;;;4.75;3.38;;;;;14.70;93520.00;;;;7398921;19;20144;-77
2023/07/28 03:05:37;;;;;;;3.50;3.20;;;;;14.70;93524.00;;;;7402898;19;20615;-77
2023/07/28 03:08:07;;;;;;;4.97;3.10;;;;;14.60;93526.00;;;;7402144;19;20595;-77
2023/07/28 03:10:42;;;;;;;3.75;3.30;;;;;14.70;93528.00;;;;7400063;19;20148;-77
2023/07/28 03:13:10;;;;;;;4.28;3.20;;;;;14.70;93530.00;;;;7401714;19;20165;-77
2023/07/28 03:15:45;;;;;;;4.55;3.20;;;;;14.70;93538.00;;;;7397665;19;20132;-78
2023/07/28 03:18:21;;;;;;;7.28;3.13;;;;;14.80;93540.00;;;;7401077;19;20660;-82
2023/07/28 03:20:55;;;;;;;5.40;3.25;;;;;14.80;93543.00;;;;7402827;19;20133;-82
2023/07/28 03:23:36;;;;;;;5.55;3.13;;;;;14.90;93547.00;;;;7398679;19;20635;-80
2023/07/28 03:26:03;;;;;;;4.38;3.22;;;;;14.90;93559.00;;;;7401329;19;20149;-80
2023/07/28 03:28:38;;;;;;;3.30;2.90;;;;;15.00;93566.00;;;;7401338;19;20196;-79
2023/07/28 03:31:06;;;;;;;4.05;2.90;;;;;15.00;93570.00;;;;7403308;19;20197;-80
2023/07/28 03:33:42;;;;;;;3.28;2.97;;;;;15.10;93564.00;;;;7400792;19;20226;-81
2023/07/28 03:36:10;;;;;;;3.92;3.50;;;;;15.10;93574.00;;;;7399251;19;20125;-79
2023/07/28 03:38:46;;;;;;;5.22;3.72;;;;;15.20;93567.00;;;;7402084;19;20144;-81
2023/07/28 03:41:21;;;;;;;4.05;3.05;;;;;15.20;93565.00;;;;7401768;19;20145;-80
2023/07/28 03:43:57;;;;;;;6.10;3.45;;;;;15.40;93563.00;;;;7400979;19;20529;-81
2023/07/28 03:46:26;;;;;;;4.38;3.80;;;;;15.30;93558.00;;;;7399327;19;20249;-80
2023/07/28 03:49:01;;;;;;;3.95;3.55;;;;;15.50;93547.00;;;;7402234;19;20211;-80
2023/07/28 03:51:29;;;;;;;4.93;3.95;;;;;15.50;93563.00;;;;7401194;19;20137;-80
2023/07/28 03:54:04;;;;;;;4.40;3.63;;;;;15.50;93571.00;;;;7400293;19;20137;-80
2023/07/28 03:56:31;;;;;;;4.88;4.22;;;;;15.60;93558.00;;;;7400935;19;20589;-79
2023/07/28 03:59:07;;;;;;;8.45;4.53;;;;;15.70;93557.00;;;;7399110;19;20159;-79
2023/07/28 04:01:35;;;;;;;4.68;4.15;;;;;15.70;93566.00;;;;7398513;19;20612;-80
2023/07/28 04:04:10;;;;;;;4.75;4.07;;;;;15.80;93557.00;;;;7397815;19;20127;-81
2023/07/28 04:06:47;;;;;;;5.07;4.57;;;;;15.80;93558.00;;;;7402696;19;20140;-81
2023/07/28 04:09:22;;;;;;;6.75;4.63;;;;;15.80;93550.00;;;;7402792;19;20149;-79
2023/07/28 04:11:51;;;;;;;4.18;3.78;;;;;15.80;93563.00;;;;7399226;19;20145;-82
2023/07/28 04:14:26;;;;;;;3.85;3.55;;;;;15.70;93556.00;;;;7399670;19;20145;-82
2023/07/28 04:17:01;;;;;;;4.20;3.70;;;;;15.70;93554.00;;;;7400118;19;20161;-81
2023/07/28 04:19:29;;;;;;;4.95;3.42;;;;;15.60;93549.00;;;;7398086;19;20143;-82
2023/07/28 04:21:57;;;;;;;4.47;3.30;;;;;15.60;93552.00;;;;7398255;19;20164;-80
2023/07/28 04:24:32;;;;;;;4.13;3.30;;;;;15.50;93554.00;;;;7398402;19;20145;-80
2023/07/28 04:27:07;;;;;;;6.40;4.07;;;;;15.50;93553.00;;;;7398960;19;20600;-80
2023/07/28 04:29:42;;;;;;;6.18;3.47;;;;;15.50;93561.00;;;;7399452;19;20153;-77
2023/07/28 04:32:16;;;;;;;5.80;3.90;;;;;15.50;93547.00;;;;7399763;19;20161;-76
2023/07/28 04:34:51;;;;;;;5.20;4.00;;;;;15.60;93540.00;;;;7398085;19;20157;-76
2023/07/28 04:37:19;;;;;;;5.72;3.67;;;;;15.50;93537.00;;;;7397984;19;20125;-80
2023/07/28 04:39:56;;;;;;;4.40;3.75;;;;;15.60;93543.00;;;;7397792;19;20648;-77
2023/07/28 04:42:23;;;;;;;7.78;4.30;;;;;15.60;93553.00;;;;7397340;19;20144;-77
2023/07/28 04:44:58;;;;;;;4.93;4.22;;;;;15.60;93552.00;;;;7396399;19;20243;-76
2023/07/28 04:47:27;;;;;;;4.20;3.80;;;;;15.70;93554.00;;;;7399842;19;20216;-75
2023/07/28 04:49:55;;;;;;;6.03;4.20;;;;;15.70;93543.00;;;;7398224;19;20129;-75
2023/07/28 04:52:29;;;;;;;4.90;4.40;;;;;15.80;93549.00;;;;7396559;19;20173;-75
2023/07/28 04:55:10;;;;;;;5.40;4.20;;;;;15.70;93551.00;;;;7396813;19;20143;-76
2023/07/28 04:57:47;;;;;;;5.32;4.35;;;;;15.90;93567.00;;;;7397537;19;20586;-76
2023/07/28 05:00:21;;;;;;;5.45;4.60;;;;;15.90;93565.00;;;;7396389;19;20145;-77
2023/07/28 05:02:56;;;;;;;5.30;4.40;;;;;15.80;93569.00;;;;7391355;19;20148;-77
2023/07/28 05:05:31;;;;;;;5.05;4.55;;;;;15.90;93573.00;;;;7397325;19;20147;-76
2023/07/28 05:07:59;;;;;;;4.57;4.18;;;;;15.80;93576.00;;;;7398074;19;20216;-76
2023/07/28 05:10:33;;;;;;;5.13;4.60;;;;;15.90;93565.00;;;;7394332;19;20180;-75
2023/07/28 05:13:05;;;;;;;5.95;4.20;;;;;16.00;93562.00;;;;7398196;19;20629;-79
2023/07/28 05:15:39;;;;;;;5.63;4.35;;;;;16.00;93559.00;;;;7395822;19;20620;-77
2023/07/28 05:18:14;;;;;;;4.45;4.05;;;;;16.10;93561.00;;;;7397463;19;20132;-77
2023/07/28 05:20:49;;;;;;;6.95;4.05;;;;;16.20;93575.00;;;;7397691;19;20619;-77
2023/07/28 05:23:30;;;;;;;5.80;3.47;;;;;16.30;93579.00;;;;7394250;19;20623;-77
2023/07/28 05:26:12;;;;;;;4.68;3.80;;;;;16.30;93579.00;;;;7395621;19;20165;-77
2023/07/28 05:28:41;;;;;;;4.25;3.85;;;;;16.30;93581.00;;;;7395594;19;20139;-77
2023/07/28 05:31:16;;;;;;;7.15;3.40;;;;;16.40;93595.00;;;;7396640;19;20667;-75
2023/07/28 05:33:45;;;;;;;5.25;3.65;;;;;16.30;93588.00;;;;7397145;19;20607;-77
2023/07/28 05:36:19;;;;;;;4.45;3.97;;;;;16.30;93591.00;;;;7393815;19;20238;-78
2023/07/28 05:38:48;;;;;;;6.32;3.53;;;;;16.20;93588.00;;;;7395158;19;20159;-76
2023/07/28 05:41:24;;;;;;;5.25;3.60;;;;;16.20;93590.00;;;;7395397;19;20200;-78
2023/07/28 05:43:58;;;;;;;3.80;3.42;;;;;16.40;93591.00;;;;7394765;19;20161;-76
2023/07/28 05:46:28;;;;;;;5.10;3.25;;;;;16.30;93589.00;;;;7395618;19;20173;-77
2023/07/28 05:49:04;;;;;;;3.65;3.20;;;;;16.20;93590.00;;;;7396486;19;20479;-77
2023/07/28 05:51:33;;;;;;;3.08;2.75;;;;;16.20;93596.00;;;;7394513;19;20466;-77
2023/07/28 05:54:02;;;;;;;4.45;3.28;;;;;16.10;93602.00;;;;7394788;19;20156;-75
2023/07/28 05:56:38;;;;;;;3.45;3.03;;;;;16.10;93599.00;;;;7393830;19;20162;-77
2023/07/28 05:59:06;;;;;;;3.22;2.75;;;;;16.10;93602.00;;;;7393341;19;20148;-75
2023/07/28 06:01:41;;;;;;;3.22;2.38;;;;;16.10;93599.00;;;;7393812;19;20196;-78
2023/07/28 06:04:18;;;;;;;2.50;2.30;;;;;16.10;93617.00;;;;7395034;19;20135;-77
2023/07/28 06:06:52;;;;;;;2.67;2.47;;;;;16.10;93616.00;;;;7393938;19;20149;-75
2023/07/28 06:09:29;;;;;;;3.17;2.53;;;;;16.00;93619.00;;;;7391180;19;20172;-76
2023/07/28 06:12:04;;;;;;;2.35;2.15;;;;;16.10;93619.00;;;;7394263;19;20144;-76
2023/07/28 06:14:32;;;;;;;2.33;2.10;;;;;16.10;93610.00;;;;7393998;19;20152;-76
2023/07/28 06:17:07;;;;;;;1.92;1.83;;;;;16.20;93610.00;;;;7392583;19;20152;-77
2023/07/28 06:19:41;;;;;;;3.92;2.58;;;;;16.30;93614.00;;;;7393872;19;20136;-75
2023/07/28 06:22:30;;;;;;;1.92;1.75;;;;;16.30;93600.00;;;;7380906;19;20603;-77
2023/07/28 06:25:05;;;;;;;2.63;1.83;;;;;16.40;93596.00;;;;7389057;19;20132;-77
2023/07/28 06:27:40;;;;;;;1.90;1.70;;;;;16.50;93589.00;;;;7389265;19;20817;-74
2023/07/28 06:30:15;;;;;;;1.77;1.65;;;;;16.70;93597.00;;;;7388936;19;20619;-77
2023/07/28 06:32:51;;;;;;;1.70;1.60;;;;;16.90;93602.00;;;;7392045;19;20714;-78
2023/07/28 06:35:27;;;;;;;3.58;1.75;;;;;16.90;93607.00;;;;7390030;19;20155;-75
2023/07/28 06:38:02;;;;;;;1.90;1.73;;;;;17.00;93600.00;;;;7390434;19;20208;-77
2023/07/28 06:40:44;;;;;;;1.60;1.50;;;;;17.10;93602.00;;;;7389892;19;20484;-78
2023/07/28 06:43:19;;;;;;;1.50;1.40;;;;;17.30;93605.00;;;;7390282;19;20153;-75
2023/07/28 06:45:51;;;;;;;1.50;1.40;;;;;17.60;93592.00;;;;7388695;19;20486;-76
2023/07/28 06:48:27;;;;;;;3.58;1.65;;;;;18.00;93599.00;;;;7390849;19;20476;-79
2023/07/28 06:50:55;;;;;;;1.60;1.50;;;;;18.30;93596.00;;;;7392615;19;20149;-80
2023/07/28 06:53:34;;;;;;;1.80;1.70;;;;;18.50;93591.00;;;;7392829;19;20159;-81
2023/07/28 06:56:04;;;;;;;2.28;1.83;;;;;18.60;93588.00;;;;7384409;19;20193;-82
2023/07/28 06:58:38;;;;;;;2.35;1.90;;;;;18.60;93598.00;;;;7391376;19;20159;-77
2023/07/28 07:01:10;;;;;;;2.92;1.92;;;;;18.50;93605.00;;;;7390401;19;20628;-79
2023/07/28 07:03:40;;;;;;;3.60;1.67;;;;;18.60;93608.00;;;;7391490;19;20177;-80
2023/07/28 07:06:14;;;;;;;3.42;1.60;;;;;18.50;93612.00;;;;7390862;19;20144;-82
2023/07/28 07:08:43;;;;;;;1.70;1.60;;;;;18.30;93613.00;;;;7389601;19;20244;-78
2023/07/28 07:11:18;;;;;;;2.33;1.80;;;;;18.00;93623.00;;;;7389230;19;20148;-77
2023/07/28 07:13:46;;;;;;;2.17;1.98;;;;;17.80;93625.00;;;;7389826;19;20140;-79
2023/07/28 07:16:21;;;;;;;2.40;2.00;;;;;17.80;93630.00;;;;7388826;19;20148;-76
2023/07/28 07:18:53;;;;;;;3.28;1.75;;;;;17.80;93625.00;;;;7388234;19;20657;-76
2023/07/28 07:21:29;;;;;;;2.28;2.03;;;;;17.80;93636.00;;;;7390302;19;20145;-78
2023/07/28 07:23:57;;;;;;;2.13;1.92;;;;;18.00;93638.00;;;;7388022;19;20232;-78
2023/07/28 07:26:33;;;;;;;4.53;2.10;;;;;18.10;93628.00;;;;7388105;19;20583;-77
2023/07/28 07:29:01;;;;;;;2.70;2.20;;;;;18.40;93634.00;;;;7387872;19;20152;-77
2023/07/28 07:31:35;;;;;;;2.83;2.15;;;;;18.40;93637.00;;;;7388575;19;20186;-78
2023/07/28 07:34:05;;;;;;;2.15;1.85;;;;;18.40;93635.00;;;;7387724;19;20529;-77
2023/07/28 07:36:41;;;;;;;3.35;2.08;;;;;18.30;93645.00;;;;7387789;19;20219;-79
2023/07/28 07:39:09;;;;;;;2.25;2.05;;;;;18.40;93640.00;;;;7388888;19;20149;-78
2023/07/28 07:41:44;;;;;;;2.20;1.90;;;;;18.40;93649.00;;;;7389299;19;20128;-79
2023/07/28 07:44:13;;;;;;;2.38;2.15;;;;;18.50;93644.00;;;;7387731;19;20508;-80
2023/07/28 07:46:49;;;;;;;2.38;2.08;;;;;18.70;93639.00;;;;7386692;19;20507;-77
2023/07/28 07:49:18;;;;;;;2.35;2.00;;;;;19.10;93632.00;;;;7388390;19;20144;-77
2023/07/28 07:51:53;;;;;;;3.03;2.22;;;;;19.80;93638.00;;;;7387482;19;20170;-77
2023/07/28 07:54:23;;;;;;;2.63;2.00;;;;;19.70;93640.00;;;;7386398;19;20153;-79
2023/07/28 07:56:52;;;;;;;2.30;2.10;;;;;20.10;93631.00;;;;7387524;19;20144;-77
2023/07/28 07:59:30;;;;;;;2.22;1.92;;;;;20.40;93634.00;;;;7384762;19;20161;-78
2023/07/28 08:02:06;;;;;;;2.10;1.90;;;;;20.30;93628.00;;;;7387411;19;20247;-77
2023/07/28 08:04:40;;;;;;;2.72;2.33;;;;;20.40;93637.00;;;;7385574;19;20152;-76
2023/07/28 08:07:09;;;;;;;2.10;1.90;;;;;20.80;93634.00;;;;7386504;19;20144;-76
2023/07/28 08:09:44;;;;;;;2.92;1.90;;;;;21.10;93634.00;;;;7389082;19;20495;-76
2023/07/28 08:12:18;;;;;;;2.75;1.98;;;;;20.90;93632.00;;;;7387541;19;20148;-77
2023/07/28 08:14:47;;;;;;;5.00;2.40;;;;;20.80;93635.00;;;;7386169;19;20610;-77
2023/07/28 08:17:24;;;;;;;2.70;2.00;;;;;20.90;93650.00;;;;7386686;19;20148;-75
2023/07/28 08:19:57;;;;;;;2.92;2.25;;;;;20.50;93659.00;;;;7387903;19;20137;-79
2023/07/28 08:22:45;;;;;;;2.15;1.92;;;;;20.60;93632.00;;;;7387055;19;20609;-76
2023/07/28 08:25:14;;;;;;;2.10;1.90;;;;;20.10;93655.00;;;;7386744;19;20157;-79
2023/07/28 08:27:48;;;;;;;3.53;2.20;;;;;20.60;93654.00;;;;7388881;19;20654;-76
2023/07/28 08:30:24;;;;;;;3.03;1.95;;;;;20.30;93672.00;;;;7385470;19;20200;-79
2023/07/28 08:33:01;;;;;;;2.67;2.20;;;;;20.80;93658.00;;;;7386656;19;20167;-78
2023/07/28 08:35:30;;;;;;;5.95;2.42;;;;;20.60;93667.00;;;;7386258;19;20148;-77
2023/07/28 08:37:59;;;;;;;3.42;2.13;;;;;20.70;93672.00;;;;7386835;19;20133;-78
2023/07/28 08:40:36;;;;;;;3.50;2.00;;;;;20.50;93675.00;;;;7386210;19;20483;-78
2023/07/28 08:43:04;;;;;;;3.05;2.10;;;;;20.40;93679.00;;;;7386320;19;20152;-79
2023/07/28 08:45:40;;;;;;;2.42;1.85;;;;;20.10;93684.00;;;;7385105;19;20212;-79
2023/07/28 08:48:16;;;;;;;2.30;2.10;;;;;20.00;93695.00;;;;7387055;19;20133;-77
2023/07/28 08:50:52;;;;;;;2.17;1.98;;;;;19.80;93677.00;;;;7386006;19;20492;-79
2023/07/28 08:53:20;;;;;;;3.45;2.22;;;;;19.80;93684.00;;;;7385544;19;20465;-77
2023/07/28 08:55:48;;;;;;;4.10;1.90;;;;;19.80;93670.00;;;;7386602;19;20492;-76
2023/07/28 08:58:24;;;;;;;1.70;1.60;;;;;20.60;93680.00;;;;7387390;19;20136;-79
2023/07/28 09:01:01;;;;;;;1.98;1.77;;;;;21.10;93677.00;;;;7386988;19;20605;-79
2023/07/28 09:03:43;;;;;;;1.90;1.70;;;;;21.40;93683.00;;;;7384742;19;20136;-78
2023/07/28 09:06:15;;;;;;;1.60;1.50;;;;;21.30;93685.00;;;;7389136;19;20180;-78
2023/07/28 09:08:50;;;;;;;2.00;1.60;;;;;21.20;93695.00;;;;7389335;19;20877;-80
2023/07/28 09:11:28;;;;;;;1.58;1.45;;;;;20.50;93694.00;;;;7394888;19;20154;-79
2023/07/28 09:13:59;;;;;;;1.60;1.50;;;;;20.20;93689.00;;;;7394580;19;20129;-80
2023/07/28 09:16:36;;;;;;;7.38;1.60;;;;;20.80;93706.00;;;;7385969;19;20151;-78
2023/07/28 09:19:08;;;;;;;1.50;1.40;;;;;20.40;93706.00;;;;7392308;19;20165;-77
2023/07/28 09:21:56;;;;;;;2.35;1.40;;;;;20.30;93700.00;;;;7386410;19;20488;-80
2023/07/28 09:24:39;;;;;;;0.95;0.95;;;;;20.70;93681.00;;;;7385563;19;20179;-79
2023/07/28 09:27:25;;;;;;;2.13;1.30;;;;;19.80;93704.00;;;;7388359;19;20189;-76
2023/07/28 09:29:55;;;;;;;1.00;1.00;;;;;19.60;93717.00;;;;7387534;19;20630;-74
2023/07/28 09:32:33;;;;;;;1.02;0.93;;;;;19.50;93723.00;;;;7388065;19;20731;-75
2023/07/28 09:35:10;;;;;;;1.63;1.30;;;;;19.30;93711.00;;;;7386075;19;20525;-74
2023/07/28 09:37:49;;;;;;;1.20;1.10;;;;;19.90;93703.00;;;;7386951;19;20131;-74
2023/07/28 09:40:24;;;;;;;1.85;1.10;;;;;20.00;93717.00;;;;7384913;19;20148;-75
2023/07/28 09:42:59;;;;;;;1.35;0.93;;;;;19.80;93730.00;;;;7385834;19;20596;-74
2023/07/28 09:45:36;;;;;;;1.35;1.23;;;;;19.90;93723.00;;;;7385917;19;20216;-75
2023/07/28 09:48:11;;;;;;;1.67;1.33;;;;;19.90;93721.00;;;;7387565;19;20142;-76
2023/07/28 09:50:41;;;;;;;1.60;1.30;;;;;19.80;93711.00;;;;7388240;19;20156;-75
2023/07/28 09:53:19;;;;;;;1.10;1.00;;;;;20.10;93704.00;;;;7386531;19;20617;-75
2023/07/28 09:55:57;;;;;;;1.20;1.10;;;;;19.80;93710.00;;;;7383746;19;20140;-73
2023/07/28 09:58:26;;;;;;;0.93;0.93;;;;;20.20;93712.00;;;;7384787;19;20165;-75
2023/07/28 10:01:02;;;;;;;1.20;1.10;;;;;20.10;93720.00;;;;7384783;19;20145;-75
2023/07/28 10:03:37;;;;;;;1.20;1.10;;;;;19.90;93731.00;;;;7383278;19;20207;-78
2023/07/28 10:06:15;;;;;;;1.10;1.00;;;;;19.70;93729.00;;;;7382521;19;20493;-74
2023/07/28 10:08:45;;;;;;;1.38;1.15;;;;;19.00;93738.00;;;;7384515;19;20129;-74
2023/07/28 10:11:20;;;;;;;0.93;0.90;;;;;19.20;93732.00;;;;7388209;19;20116;-74
2023/07/28 10:13:50;;;;;;;1.10;1.00;;;;;19.60;93733.00;;;;7383256;19;20628;-76
2023/07/28 10:16:40;;;;;;;1.17;1.13;;;;;19.80;93724.00;;;;7381344;19;20156;-75
2023/07/28 10:19:10;;;;;;;2.08;1.30;;;;;20.10;93719.00;;;;7384566;19;23297;-81
2023/07/28 10:21:45;;;;;;;1.40;1.27;;;;;20.40;93717.00;;;;7383404;19;20672;-79
2023/07/28 10:24:55;;;;;;;1.30;1.20;;;;;21.10;93710.00;;;;7379740;19;20204;-80
2023/07/28 10:27:39;;;;;;;2.92;1.65;;;;;21.50;93710.00;;;;7376833;19;20218;-77
2023/07/28 10:30:15;;;;;;;1.73;1.35;;;;;21.50;93715.00;;;;7377087;19;20633;-80
2023/07/28 10:32:50;;;;;;;1.70;1.50;;;;;21.50;93723.00;;;;7378370;19;20151;-79
2023/07/28 10:35:27;;;;;;;1.70;1.42;;;;;21.00;93717.00;;;;7375230;19;20148;-81
2023/07/28 10:37:58;;;;;;;1.73;1.60;;;;;21.20;93727.00;;;;7377100;19;20211;-77
2023/07/28 10:40:39;;;;;;;2.95;1.88;;;;;20.80;93730.00;;;;7374358;19;20149;-79
2023/07/28 10:43:14;;;;;;;1.70;1.60;;;;;21.00;93722.00;;;;7379364;19;20482;-77
2023/07/28 10:45:49;;;;;;;1.70;1.60;;;;;21.20;93729.00;;;;7377040;19;20620;-79
2023/07/28 10:48:17;;;;;;;1.70;1.60;;;;;20.70;93730.00;;;;7384147;19;20163;-76
2023/07/28 10:50:51;;;;;;;2.33;1.70;;;;;21.00;93733.00;;;;7381236;19;20601;-77
2023/07/28 10:53:26;;;;;;;5.68;1.90;;;;;20.80;93740.00;;;;7382344;19;20168;-77
2023/07/28 10:55:54;;;;;;;3.20;1.98;;;;;20.80;93742.00;;;;7381430;19;20153;-78
2023/07/28 10:58:28;;;;;;;3.47;1.83;;;;;20.60;93744.00;;;;7380948;19;20211;-75
2023/07/28 11:01:02;;;;;;;2.45;1.80;;;;;20.40;93757.00;;;;7380455;19;20176;-78
2023/07/28 11:03:31;;;;;;;2.35;1.83;;;;;20.50;93750.00;;;;7382999;19;20149;-77
2023/07/28 11:05:59;;;;;;;1.70;1.60;;;;;20.40;93753.00;;;;7386615;19;20145;-75
2023/07/28 11:08:34;;;;;;;2.20;2.00;;;;;20.30;93749.00;;;;7388754;19;20139;-74
2023/07/28 11:11:04;;;;;;;2.97;1.90;;;;;20.30;93751.00;;;;7393519;19;20636;-75
2023/07/28 11:13:40;;;;;;;2.90;1.92;;;;;20.70;93743.00;;;;7390843;19;20135;-75
2023/07/28 11:16:14;;;;;;;1.88;1.77;;;;;20.60;93753.00;;;;7387910;19;20148;-75
2023/07/28 11:18:49;;;;;;;5.95;2.25;;;;;20.00;93765.00;;;;7388150;19;20141;-74
2023/07/28 11:21:25;;;;;;;3.75;2.22;;;;;19.60;93770.00;;;;7389709;19;20494;-73
2023/07/28 11:24:05;;;;;;;4.05;2.00;;;;;19.50;93777.00;;;;7389889;19;20180;-75
2023/07/28 11:26:36;;;;;;;5.50;2.90;;;;;18.80;93776.00;;;;7386909;19;20481;-76
2023/07/28 11:29:10;;;;;;;2.70;2.30;;;;;18.50;93774.00;;;;7388617;19;20593;-76
2023/07/28 11:31:40;;;;;;;2.50;2.30;;;;;18.70;93768.00;;;;7386373;19;20155;-78
2023/07/28 11:34:19;;;;;;;3.28;2.22;;;;;18.80;93759.00;;;;7389271;19;20125;-77
2023/07/28 11:36:49;;;;;;;4.07;2.67;;;;;18.90;93753.00;;;;7391187;19;20137;-77
2023/07/28 11:39:25;;;;;;;2.53;2.33;;;;;19.10;93754.00;;;;7387869;19;20144;-80
2023/07/28 11:41:54;;;;;;;3.15;2.20;;;;;18.90;93765.00;;;;7388075;19;20148;-79
2023/07/28 11:44:29;;;;;;;4.00;2.38;;;;;18.80;93762.00;;;;7391640;19;20625;-77
2023/07/28 11:46:59;;;;;;;3.65;2.78;;;;;18.80;93765.00;;;;7387339;19;20161;-78
2023/07/28 11:49:47;;;;;;;3.38;2.70;;;;;18.90;93761.00;;;;7387464;19;20144;-75
2023/07/28 11:52:15;;;;;;;4.53;2.72;;;;;19.00;93763.00;;;;7386513;19;20145;-78
2023/07/28 11:54:53;;;;;;;2.90;2.53;;;;;19.00;93767.00;;;;7390087;19;20235;-78
2023/07/28 11:57:22;;;;;;;3.35;2.55;;;;;19.10;93768.00;;;;7388441;19;20140;-78
2023/07/28 11:59:56;;;;;;;4.57;2.95;;;;;19.30;93776.00;;;;7386421;19;20141;-78
2023/07/28 12:02:28;;;;;;;2.92;2.40;;;;;19.10;93779.00;;;;7386885;19;20197;-78
2023/07/28 12:05:13;;;;;;;4.88;2.90;;;;;18.90;93783.00;;;;7387013;19;20504;-76
2023/07/28 12:07:54;;;;;;;3.85;2.90;;;;;18.60;93772.00;;;;7392711;19;20133;-77
2023/07/28 12:10:24;;;;;;;3.95;2.75;;;;;18.50;93767.00;;;;7388594;19;20644;-79
2023/07/28 12:13:09;;;;;;;2.83;2.53;;;;;18.50;93766.00;;;;7386797;19;20464;-79
2023/07/28 12:15:46;;;;;;;3.60;2.58;;;;;18.60;93768.00;;;;7386079;19;20144;-78
2023/07/28 12:18:29;;;;;;;3.15;2.80;;;;;18.60;93762.00;;;;7388286;19;20584;-78
2023/07/28 12:21:06;;;;;;;3.47;2.63;;;;;18.60;93757.00;;;;7388715;19;20151;-77
2023/07/28 12:23:49;;;;;;;2.95;2.22;;;;;18.60;93757.00;;;;7386808;19;20156;-78
2023/07/28 12:26:33;;;;;;;2.95;2.65;;;;;18.60;93756.00;;;;7384933;19;20149;-77
2023/07/28 12:29:06;;;;;;;4.93;2.45;;;;;18.70;93758.00;;;;7385013;19;20156;-78
2023/07/28 12:31:40;;;;;;;2.50;2.05;;;;;18.80;93767.00;;;;7386403;19;20460;-78
2023/07/28 12:34:11;;;;;;;3.28;2.45;;;;;18.90;93759.00;;;;7387338;19;20127;-78
2023/07/28 12:36:50;;;;;;;3.20;2.45;;;;;18.60;93767.00;;;;7384294;19;20156;-77
2023/07/28 12:39:23;;;;;;;4.45;2.67;;;;;18.60;93751.00;;;;7386154;19;20597;-75
2023/07/28 12:42:00;;;;;;;3.47;2.20;;;;;18.80;93769.00;;;;7384246;19;20168;-76
2023/07/28 12:44:40;;;;;;;3.72;2.28;;;;;19.00;93764.00;;;;7385640;19;20611;-74
2023/07/28 12:47:11;;;;;;;2.72;2.53;;;;;18.90;93765.00;;;;7391526;19;21275;-76
2023/07/28 12:49:46;;;;;;;2.58;2.38;;;;;18.50;93777.00;;;;7386390;19;20611;-75
2023/07/28 12:52:17;;;;;;;3.10;2.80;;;;;18.50;93764.00;;;;7387934;19;20144;-75